Time;durP1;ratioP1;P1;durP2;ratioP2;P2;SDS_P1;SDS_P2;PMS_P1;PMS_P2;Temp;Humidity;BMP_temperature;BMP_pressure;BME280_temperature;BME280_humidity;BME280_pressure;Samples;Min_cycle;Max_cycle;Signal;HPM_P1;HPM_P2
2022/02/16 00:19:08;;;;;;;16.20;14.00;;;;;;;;;;5153978;27;20178;31
2022/02/16 00:21:34;;;;;;;16.55;14.77;;;;;;;;;;5155653;27;20106;-65
2022/02/16 00:24:00;;;;;;;16.52;14.63;;;;;;;;;;5158824;27;20058;-66
2022/02/16 00:26:26;;;;;;;16.45;14.65;;;;;;;;;;5158580;27;20073;-68
2022/02/16 00:28:52;;;;;;;16.95;14.90;;;;;;;;;;5158827;27;20169;-67
2022/02/16 00:31:18;;;;;;;15.48;13.88;;;;;;;;;;5158532;27;20070;-67
2022/02/16 00:33:44;;;;;;;16.05;14.30;;;;;;;;;;5158980;27;20136;-68
2022/02/16 00:36:10;;;;;;;17.20;15.02;;;;;;;;;;5158690;27;20059;-67
2022/02/16 00:38:36;;;;;;;16.20;14.50;;;;;;;;;;5158827;27;20098;-66
2022/02/16 00:41:02;;;;;;;15.43;13.82;;;;;;;;;;5158596;27;20103;-66
2022/02/16 00:43:29;;;;;;;15.27;13.68;;;;;;;;;;5158920;27;20085;-66
2022/02/16 00:45:55;;;;;;;15.57;13.98;;;;;;;;;;5158638;27;20101;-65
2022/02/16 00:48:21;;;;;;;17.98;15.15;;;;;;;;;;5159192;27;20170;-66
2022/02/16 00:50:47;;;;;;;15.82;14.05;;;;;;;;;;5140043;27;20094;-66
2022/02/16 00:53:13;;;;;;;15.85;14.25;;;;;;;;;;5158641;27;20452;-68
2022/02/16 00:55:39;;;;;;;16.48;14.40;;;;;;;;;;5139746;27;20078;-67
2022/02/16 00:58:05;;;;;;;17.52;15.35;;;;;;;;;;5158568;27;20083;-67
2022/02/16 01:00:33;;;;;;;17.37;14.38;;;;;;;;;;5158952;27;20188;-66
2022/02/16 01:02:59;;;;;;;17.52;14.40;;;;;;;;;;5158619;27;20082;-68
2022/02/16 01:05:25;;;;;;;18.45;15.40;;;;;;;;;;5158857;27;20165;-66
2022/02/16 01:07:51;;;;;;;18.00;14.35;;;;;;;;;;5158482;27;20123;-66
2022/02/16 01:10:17;;;;;;;16.37;14.20;;;;;;;;;;5159055;27;20063;-65
2022/02/16 01:12:43;;;;;;;17.37;14.40;;;;;;;;;;5158543;27;20591;-66
2022/02/16 01:15:10;;;;;;;16.80;14.50;;;;;;;;;;5158658;27;20104;-66
2022/02/16 01:17:36;;;;;;;16.33;14.63;;;;;;;;;;5158519;27;20662;-65
2022/02/16 01:20:03;;;;;;;19.48;16.23;;;;;;;;;;5158567;27;20066;-64
2022/02/16 01:22:29;;;;;;;16.98;14.25;;;;;;;;;;5160195;27;20098;-65
2022/02/16 01:24:55;;;;;;;16.65;14.27;;;;;;;;;;5141637;27;20087;-67
2022/02/16 01:27:21;;;;;;;15.73;13.95;;;;;;;;;;5159851;27;20090;-65
2022/02/16 01:29:47;;;;;;;15.70;13.90;;;;;;;;;;5159716;27;20082;-64
2022/02/16 01:32:13;;;;;;;15.82;14.18;;;;;;;;;;5159786;27;20079;-65
2022/02/16 01:34:39;;;;;;;17.70;15.02;;;;;;;;;;5159638;27;20075;-64
2022/02/16 01:37:05;;;;;;;17.12;15.23;;;;;;;;;;5159662;27;20089;-64
2022/02/16 01:39:33;;;;;;;19.08;15.88;;;;;;;;;;5159824;27;20183;-64
2022/02/16 01:42:00;;;;;;;18.58;15.77;;;;;;;;;;5159808;27;20090;-63
2022/02/16 01:44:27;;;;;;;16.60;14.82;;;;;;;;;;5157764;27;20430;-65
2022/02/16 01:47:01;;;;;;;17.48;15.38;;;;;;;;;;5159572;27;20094;-66
2022/02/16 01:49:28;;;;;;;18.33;15.95;;;;;;;;;;5140915;27;20070;-64
2022/02/16 01:51:54;;;;;;;18.25;15.45;;;;;;;;;;5159942;27;20070;-65
2022/02/16 01:54:20;;;;;;;16.67;14.87;;;;;;;;;;5159572;27;20070;-65
2022/02/16 01:56:48;;;;;;;18.75;15.40;;;;;;;;;;5159578;27;20157;-64
2022/02/16 01:59:19;;;;;;;18.27;15.15;;;;;;;;;;5159766;27;20187;-65
2022/02/16 02:01:46;;;;;;;18.77;15.80;;;;;;;;;;5159488;27;20082;-65
2022/02/16 02:04:14;;;;;;;16.50;14.80;;;;;;;;;;5159626;27;20075;-65
2022/02/16 02:06:40;;;;;;;16.75;14.98;;;;;;;;;;5159467;27;20077;-65
2022/02/16 02:09:06;;;;;;;20.95;15.63;;;;;;;;;;5159528;27;20401;-64
2022/02/16 02:11:32;;;;;;;18.00;14.65;;;;;;;;;;5140976;27;20143;-65
2022/02/16 02:14:01;;;;;;;19.55;16.33;;;;;;;;;;5159670;27;20164;-66
2022/02/16 02:16:27;;;;;;;17.00;14.93;;;;;;;;;;5159704;27;20239;-65
2022/02/16 02:18:54;;;;;;;17.90;15.55;;;;;;;;;;5159572;27;20485;-64
2022/02/16 02:21:20;;;;;;;17.90;15.40;;;;;;;;;;5159315;27;20174;-66
2022/02/16 02:23:47;;;;;;;20.77;17.20;;;;;;;;;;5159825;27;20416;-65
2022/02/16 02:26:14;;;;;;;20.80;16.20;;;;;;;;;;5140320;27;20070;-65
2022/02/16 02:28:40;;;;;;;17.20;15.32;;;;;;;;;;5159600;27;20149;-65
2022/02/16 02:31:07;;;;;;;19.10;15.65;;;;;;;;;;5159263;27;20081;-65
2022/02/16 02:33:33;;;;;;;19.15;15.35;;;;;;;;;;5159457;27;20070;-65
2022/02/16 02:35:59;;;;;;;18.77;16.45;;;;;;;;;;5159373;27;20170;-65
2022/02/16 02:38:26;;;;;;;18.30;16.17;;;;;;;;;;5159401;27;20084;-65
2022/02/16 02:40:57;;;;;;;19.52;15.98;;;;;;;;;;5159312;27;20130;-66
2022/02/16 02:43:27;;;;;;;18.95;15.50;;;;;;;;;;5159277;27;20178;-65
2022/02/16 02:45:54;;;;;;;20.23;16.10;;;;;;;;;;5159162;27;20078;-66
2022/02/16 02:48:21;;;;;;;18.23;16.12;;;;;;;;;;5123102;27;20090;-66
2022/02/16 02:50:48;;;;;;;17.35;15.27;;;;;;;;;;5159067;27;20485;-66
2022/02/16 02:53:14;;;;;;;17.60;15.05;;;;;;;;;;5157707;27;20524;-64
2022/02/16 02:55:40;;;;;;;18.35;16.02;;;;;;;;;;5159270;27;20494;-63
2022/02/16 02:58:06;;;;;;;17.98;15.75;;;;;;;;;;5159139;27;20146;-63
2022/02/16 03:00:32;;;;;;;21.02;17.15;;;;;;;;;;5158996;27;20070;-63
2022/02/16 03:02:58;;;;;;;17.33;14.93;;;;;;;;;;5158967;27;20553;-63
2022/02/16 03:05:24;;;;;;;17.50;15.23;;;;;;;;;;5159010;27;20077;-63
2022/02/16 03:07:50;;;;;;;16.45;14.75;;;;;;;;;;5159138;27;20070;-64
2022/02/16 03:10:17;;;;;;;21.92;16.27;;;;;;;;;;5140045;27;20449;-63
2022/02/16 03:12:43;;;;;;;18.00;16.02;;;;;;;;;;5159092;27;20085;-64
2022/02/16 03:15:10;;;;;;;18.40;15.73;;;;;;;;;;5140284;27;20070;-64
2022/02/16 03:17:36;;;;;;;20.58;16.20;;;;;;;;;;5159150;27;20169;-64
2022/02/16 03:20:04;;;;;;;20.27;16.00;;;;;;;;;;5159263;27;20102;-64
2022/02/16 03:22:30;;;;;;;17.83;15.95;;;;;;;;;;5159394;27;20079;-64
2022/02/16 03:24:57;;;;;;;19.27;17.12;;;;;;;;;;5140516;27;20098;-63
2022/02/16 03:27:23;;;;;;;19.30;15.43;;;;;;;;;;5158865;27;20082;-65
2022/02/16 03:29:49;;;;;;;20.30;16.50;;;;;;;;;;5159315;27;20084;-65
2022/02/16 03:32:15;;;;;;;19.92;16.83;;;;;;;;;;5158900;27;20100;-64
2022/02/16 03:34:41;;;;;;;18.15;16.25;;;;;;;;;;5158904;27;20896;-65
2022/02/16 03:37:08;;;;;;;19.85;16.40;;;;;;;;;;5139792;27;20086;-65
2022/02/16 03:39:35;;;;;;;18.37;16.33;;;;;;;;;;5158911;27;20422;-65
2022/02/16 03:42:02;;;;;;;20.05;16.15;;;;;;;;;;5140002;27;20074;-64
2022/02/16 03:44:28;;;;;;;18.48;16.15;;;;;;;;;;5158826;27;20176;-64
2022/02/16 03:46:55;;;;;;;20.30;16.02;;;;;;;;;;5158815;27;20141;-65
2022/02/16 03:49:22;;;;;;;18.33;16.42;;;;;;;;;;5158711;27;20070;-65
2022/02/16 03:51:49;;;;;;;20.90;15.90;;;;;;;;;;5139971;27;20086;-64
2022/02/16 03:54:16;;;;;;;17.55;15.52;;;;;;;;;;5158710;27;20482;-64
2022/02/16 03:56:42;;;;;;;17.42;15.18;;;;;;;;;;5139782;27;20062;-65
2022/02/16 03:59:08;;;;;;;17.35;15.38;;;;;;;;;;5158763;27;20151;-65
2022/02/16 04:01:34;;;;;;;17.80;15.45;;;;;;;;;;5139962;27;20067;-64
2022/02/16 04:04:00;;;;;;;17.65;15.77;;;;;;;;;;5158607;27;20086;-63
2022/02/16 04:06:26;;;;;;;16.45;14.70;;;;;;;;;;5139805;27;20582;-64
2022/02/16 04:08:52;;;;;;;22.67;17.58;;;;;;;;;;5139756;27;20152;-64
2022/02/16 04:11:20;;;;;;;17.95;15.65;;;;;;;;;;5158821;27;20391;-61
2022/02/16 04:13:47;;;;;;;17.45;15.55;;;;;;;;;;5158777;27;20383;-63
2022/02/16 04:16:14;;;;;;;16.55;14.85;;;;;;;;;;5158626;27;20067;-64
2022/02/16 04:18:40;;;;;;;16.55;14.50;;;;;;;;;;5158640;27;20101;-64
2022/02/16 04:21:06;;;;;;;16.75;14.95;;;;;;;;;;5158516;27;20082;-64
2022/02/16 04:23:32;;;;;;;18.02;15.73;;;;;;;;;;5158486;27;20118;-64
2022/02/16 04:25:59;;;;;;;18.25;15.35;;;;;;;;;;5140009;27;20191;-63
2022/02/16 04:28:26;;;;;;;16.90;15.07;;;;;;;;;;5158505;27;20109;-66
2022/02/16 04:30:52;;;;;;;17.20;15.38;;;;;;;;;;5158968;27;20839;-66
2022/02/16 04:33:18;;;;;;;17.12;15.00;;;;;;;;;;5158369;27;20067;-66
2022/02/16 04:35:44;;;;;;;17.00;15.00;;;;;;;;;;5158633;27;20070;-66
2022/02/16 04:38:10;;;;;;;17.58;14.98;;;;;;;;;;5158451;27;20402;-65
2022/02/16 04:40:37;;;;;;;16.00;14.23;;;;;;;;;;5139682;27;20098;-65
2022/02/16 04:43:05;;;;;;;17.95;15.20;;;;;;;;;;5158433;27;20066;-65
2022/02/16 04:45:32;;;;;;;17.10;15.40;;;;;;;;;;5140100;27;20387;-66
2022/02/16 04:47:59;;;;;;;16.77;14.98;;;;;;;;;;5158601;27;20501;-66
2022/02/16 04:50:26;;;;;;;16.42;14.73;;;;;;;;;;5139797;27;20082;-66
2022/02/16 04:52:54;;;;;;;16.62;14.40;;;;;;;;;;5139490;27;20090;-63
2022/02/16 04:55:24;;;;;;;18.42;15.63;;;;;;;;;;5139783;27;20183;-66
2022/02/16 04:57:50;;;;;;;17.67;15.85;;;;;;;;;;5158392;27;20083;-66
2022/02/16 05:00:16;;;;;;;17.83;15.30;;;;;;;;;;5139813;27;20065;-65
2022/02/16 05:02:42;;;;;;;19.05;15.07;;;;;;;;;;5139549;27;20169;-65
2022/02/16 05:05:09;;;;;;;17.37;14.75;;;;;;;;;;5158434;27;20563;-66
2022/02/16 05:07:35;;;;;;;15.50;13.90;;;;;;;;;;5158324;27;20085;-66
2022/02/16 05:10:02;;;;;;;15.77;14.18;;;;;;;;;;5158557;27;20522;-65
2022/02/16 05:12:32;;;;;;;18.50;15.10;;;;;;;;;;5158384;27;20055;-66
2022/02/16 05:15:00;;;;;;;17.10;14.75;;;;;;;;;;5158526;27;20094;-69
2022/02/16 05:17:27;;;;;;;17.12;14.52;;;;;;;;;;5158335;27;20094;-65
2022/02/16 05:19:54;;;;;;;17.62;13.68;;;;;;;;;;5158290;27;20153;-65
2022/02/16 05:22:20;;;;;;;15.23;13.68;;;;;;;;;;5139462;27;20078;-66
2022/02/16 05:24:46;;;;;;;16.95;13.80;;;;;;;;;;5158260;27;20093;-65
2022/02/16 05:27:12;;;;;;;16.30;14.60;;;;;;;;;;5158415;27;20105;-65
2022/02/16 05:29:38;;;;;;;16.05;14.38;;;;;;;;;;5158318;27;20101;-65
2022/02/16 05:32:05;;;;;;;15.23;13.62;;;;;;;;;;5158328;27;20087;-65
2022/02/16 05:34:31;;;;;;;18.15;14.77;;;;;;;;;;5158232;27;20093;-65
2022/02/16 05:36:57;;;;;;;16.62;14.90;;;;;;;;;;5158228;27;20177;-66
2022/02/16 05:39:24;;;;;;;18.23;14.75;;;;;;;;;;5158291;27;20580;-65
2022/02/16 05:41:51;;;;;;;15.23;13.57;;;;;;;;;;5158234;27;20093;-63
2022/02/16 05:44:17;;;;;;;16.60;13.57;;;;;;;;;;5158256;27;20072;-66
2022/02/16 05:46:43;;;;;;;15.02;13.48;;;;;;;;;;5139282;27;20145;-66
2022/02/16 05:49:10;;;;;;;14.32;12.68;;;;;;;;;;5158287;27;20510;-66
2022/02/16 05:51:36;;;;;;;15.23;13.20;;;;;;;;;;5158256;27;20101;-66
2022/02/16 05:54:03;;;;;;;14.32;12.73;;;;;;;;;;5158540;27;20485;-67
2022/02/16 05:56:31;;;;;;;14.90;13.32;;;;;;;;;;5158578;27;20405;-65
2022/02/16 05:58:58;;;;;;;15.10;13.48;;;;;;;;;;5158400;27;20162;-64
2022/02/16 06:01:24;;;;;;;17.15;13.48;;;;;;;;;;5158200;27;20162;-65
2022/02/16 06:03:50;;;;;;;14.57;13.07;;;;;;;;;;5139667;27;20073;-66
2022/02/16 06:06:18;;;;;;;14.32;12.82;;;;;;;;;;5158602;27;20062;-65
2022/02/16 06:08:45;;;;;;;14.95;13.27;;;;;;;;;;5159454;27;20584;-64
2022/02/16 06:11:11;;;;;;;14.57;12.90;;;;;;;;;;5159495;27;20094;-62
2022/02/16 06:13:38;;;;;;;15.05;13.07;;;;;;;;;;5159384;27;20086;-64
2022/02/16 06:16:05;;;;;;;14.15;12.75;;;;;;;;;;5140835;27;20465;-63
2022/02/16 06:18:31;;;;;;;14.57;12.68;;;;;;;;;;5159354;27;20485;-64
2022/02/16 06:20:57;;;;;;;14.05;12.50;;;;;;;;;;5159326;27;20102;-64
2022/02/16 06:23:23;;;;;;;14.95;13.13;;;;;;;;;;5159316;27;20094;-63
2022/02/16 06:25:49;;;;;;;15.18;13.25;;;;;;;;;;5140383;27;20157;-65
2022/02/16 06:28:15;;;;;;;13.85;12.43;;;;;;;;;;5140440;27;20082;-64
2022/02/16 06:30:42;;;;;;;16.50;13.55;;;;;;;;;;5159313;27;20106;-64
2022/02/16 06:33:08;;;;;;;13.98;12.48;;;;;;;;;;5159240;27;20090;-64
2022/02/16 06:35:34;;;;;;;14.02;12.50;;;;;;;;;;5140588;27;20076;-64
2022/02/16 06:38:00;;;;;;;13.85;12.40;;;;;;;;;;5159262;27;20590;-63
2022/02/16 06:40:27;;;;;;;14.50;12.10;;;;;;;;;;5159279;27;20063;-63
2022/02/16 06:42:54;;;;;;;14.57;12.73;;;;;;;;;;5159186;27;20086;-63
2022/02/16 06:45:20;;;;;;;14.18;12.68;;;;;;;;;;5140648;27;20085;-66
2022/02/16 06:47:47;;;;;;;13.70;12.20;;;;;;;;;;5157446;27;20100;-63
2022/02/16 06:50:13;;;;;;;14.55;13.05;;;;;;;;;;5139501;27;20418;-62
2022/02/16 06:52:39;;;;;;;15.25;13.50;;;;;;;;;;5158560;27;20383;-65
2022/02/16 06:55:05;;;;;;;14.18;12.68;;;;;;;;;;5158957;27;20063;-64
2022/02/16 06:57:32;;;;;;;16.23;12.55;;;;;;;;;;5139958;27;20156;-65
2022/02/16 06:59:58;;;;;;;18.15;13.43;;;;;;;;;;5158886;27;20513;-65
2022/02/16 07:02:25;;;;;;;13.25;11.88;;;;;;;;;;5158408;27;20097;-65
2022/02/16 07:04:51;;;;;;;16.55;13.65;;;;;;;;;;5158876;27;20090;-65
2022/02/16 07:07:18;;;;;;;14.93;12.68;;;;;;;;;;5139707;27;20066;-66
2022/02/16 07:09:44;;;;;;;15.40;13.32;;;;;;;;;;5140243;27;20098;-64
2022/02/16 07:12:10;;;;;;;15.05;13.45;;;;;;;;;;5158654;27;20142;-64
2022/02/16 07:14:36;;;;;;;15.27;12.30;;;;;;;;;;5158840;27;20082;-63
2022/02/16 07:17:03;;;;;;;14.93;13.32;;;;;;;;;;5158468;27;20168;-64
2022/02/16 07:19:29;;;;;;;15.52;12.65;;;;;;;;;;5158538;27;20077;-66
2022/02/16 07:21:57;;;;;;;14.15;12.63;;;;;;;;;;5158750;27;20497;-64
2022/02/16 07:24:24;;;;;;;14.95;13.25;;;;;;;;;;5158584;27;20093;-63
2022/02/16 07:26:50;;;;;;;16.33;12.77;;;;;;;;;;5159033;27;20732;-66
2022/02/16 07:29:17;;;;;;;14.32;12.82;;;;;;;;;;5158914;27;20529;-66
2022/02/16 07:31:43;;;;;;;14.00;12.43;;;;;;;;;;5139640;27;20180;-64
2022/02/16 07:34:09;;;;;;;13.82;12.30;;;;;;;;;;5158530;27;20086;-63
2022/02/16 07:36:35;;;;;;;14.40;12.90;;;;;;;;;;5158035;27;20476;-62
2022/02/16 07:39:01;;;;;;;14.52;12.98;;;;;;;;;;5158752;27;20170;-63
2022/02/16 07:41:29;;;;;;;15.23;12.35;;;;;;;;;;5158605;27;20085;-63
2022/02/16 07:43:55;;;;;;;13.48;12.05;;;;;;;;;;5139914;27;20168;-63
2022/02/16 07:46:23;;;;;;;14.65;12.10;;;;;;;;;;5158357;27;20094;-63
2022/02/16 07:48:49;;;;;;;14.02;12.63;;;;;;;;;;5158592;27;20077;-63
2022/02/16 07:51:15;;;;;;;15.95;12.95;;;;;;;;;;5158727;27;20065;-63
2022/02/16 07:53:41;;;;;;;14.55;12.85;;;;;;;;;;5158925;27;20058;-62
2022/02/16 07:56:07;;;;;;;15.90;12.65;;;;;;;;;;5158706;27;20474;-62
2022/02/16 07:58:34;;;;;;;15.10;12.35;;;;;;;;;;5158755;27;20098;-62
2022/02/16 08:01:00;;;;;;;15.15;12.25;;;;;;;;;;5140063;27;20097;-61
2022/02/16 08:03:26;;;;;;;13.98;12.37;;;;;;;;;;5158717;27;20500;-60
2022/02/16 08:05:52;;;;;;;16.17;13.57;;;;;;;;;;5158913;27;20507;-60
2022/02/16 08:08:18;;;;;;;15.65;13.48;;;;;;;;;;5158584;27;20062;-62
2022/02/16 08:10:48;;;;;;;14.65;13.20;;;;;;;;;;5158959;27;20097;-62
2022/02/16 08:13:16;;;;;;;14.48;12.90;;;;;;;;;;5158585;27;20070;-64
2022/02/16 08:15:42;;;;;;;15.07;13.50;;;;;;;;;;5158665;27;20390;-64
2022/02/16 08:18:09;;;;;;;14.43;12.93;;;;;;;;;;5158642;27;20112;-64
2022/02/16 08:20:35;;;;;;;15.15;12.63;;;;;;;;;;5139651;27;20507;-64
2022/02/16 08:23:01;;;;;;;16.02;12.95;;;;;;;;;;5158468;27;20074;-63
2022/02/16 08:25:27;;;;;;;14.18;12.00;;;;;;;;;;5158526;27;20090;-62
2022/02/16 08:27:53;;;;;;;13.38;12.00;;;;;;;;;;5158362;27;20087;-64
2022/02/16 08:30:19;;;;;;;17.70;13.40;;;;;;;;;;5139690;27;20176;-63
2022/02/16 08:32:46;;;;;;;18.17;13.38;;;;;;;;;;5139541;27;20073;-63
2022/02/16 08:35:12;;;;;;;13.52;11.65;;;;;;;;;;5158606;27;20093;-65
2022/02/16 08:37:40;;;;;;;26.10;14.13;;;;;;;;;;5158533;27;20070;-64
2022/02/16 08:40:07;;;;;;;15.18;12.50;;;;;;;;;;5158487;27;20168;-65
2022/02/16 08:42:33;;;;;;;15.27;13.02;;;;;;;;;;5158502;27;20081;-65
2022/02/16 08:44:59;;;;;;;28.30;17.95;;;;;;;;;;5158559;27;20086;-64
2022/02/16 08:47:25;;;;;;;14.65;11.93;;;;;;;;;;5158340;27;20442;-64
2022/02/16 08:49:52;;;;;;;14.38;12.00;;;;;;;;;;5158532;27;20174;-64
2022/02/16 08:52:18;;;;;;;13.57;11.75;;;;;;;;;;5158630;27;20082;-62
2022/02/16 08:54:45;;;;;;;15.98;12.32;;;;;;;;;;5139955;27;20065;-60
2022/02/16 08:57:11;;;;;;;14.50;12.07;;;;;;;;;;5158492;27;20059;-64
2022/02/16 08:59:37;;;;;;;14.93;12.35;;;;;;;;;;5158387;27;20516;-65
2022/02/16 09:02:03;;;;;;;13.85;12.45;;;;;;;;;;5158451;27;20066;-63
2022/02/16 09:04:29;;;;;;;14.63;12.85;;;;;;;;;;5158485;27;20072;-63
2022/02/16 09:09:43;;;;;;;14.20;12.15;;;;;;;;;;5158510;27;20066;-64
2022/02/16 09:12:10;;;;;;;13.40;11.88;;;;;;;;;;5140102;27;20646;-61
2022/02/16 09:14:36;;;;;;;13.52;12.13;;;;;;;;;;5158204;27;20078;-63
2022/02/16 09:17:03;;;;;;;14.48;12.98;;;;;;;;;;5158324;27;20082;-64
2022/02/16 09:19:29;;;;;;;14.93;12.25;;;;;;;;;;5158130;27;20149;-64
2022/02/16 09:21:55;;;;;;;13.62;12.20;;;;;;;;;;5139340;27;20657;-64
2022/02/16 09:24:21;;;;;;;13.18;11.73;;;;;;;;;;5158232;27;20434;-64
2022/02/16 09:26:50;;;;;;;13.48;12.18;;;;;;;;;;5158132;27;20077;-64
2022/02/16 09:29:20;;;;;;;15.07;12.45;;;;;;;;;;5158624;27;20180;-63
2022/02/16 09:31:51;;;;;;;14.40;12.88;;;;;;;;;;5158266;27;20082;-63
2022/02/16 09:34:17;;;;;;;15.20;12.40;;;;;;;;;;5158247;27;20098;-61
2022/02/16 09:36:43;;;;;;;13.85;11.70;;;;;;;;;;5139781;27;20086;-63
2022/02/16 09:39:09;;;;;;;13.68;12.35;;;;;;;;;;5158181;27;20081;-64
2022/02/16 09:41:35;;;;;;;13.38;12.05;;;;;;;;;;5159057;27;20128;-64
2022/02/16 09:44:02;;;;;;;14.10;12.15;;;;;;;;;;5159580;27;20176;-64
2022/02/16 09:46:28;;;;;;;13.85;11.98;;;;;;;;;;5159852;27;20098;-64
2022/02/16 09:48:56;;;;;;;15.32;12.02;;;;;;;;;;5159656;27;20142;-63
2022/02/16 09:51:22;;;;;;;13.55;12.13;;;;;;;;;;5140819;27;20105;-62
2022/02/16 09:53:48;;;;;;;14.38;12.88;;;;;;;;;;5159620;27;20105;-62
2022/02/16 09:56:14;;;;;;;15.07;13.45;;;;;;;;;;5159522;27;20595;-62
2022/02/16 09:58:40;;;;;;;15.10;13.57;;;;;;;;;;5159538;27;20101;-62
2022/02/16 10:01:09;;;;;;;13.60;12.18;;;;;;;;;;5159465;27;20181;-62
2022/02/16 10:03:36;;;;;;;15.18;12.85;;;;;;;;;;5140585;27;20085;-62
2022/02/16 10:06:03;;;;;;;16.50;12.82;;;;;;;;;;5159571;27;20071;-62
2022/02/16 10:08:46;;;;;;;14.95;12.73;;;;;;;;;;5159258;27;20128;-63
2022/02/16 10:11:13;;;;;;;17.58;14.65;;;;;;;;;;5140452;27;20161;-62
2022/02/16 10:13:40;;;;;;;14.87;13.02;;;;;;;;;;5140146;27;20086;-63
2022/02/16 10:16:06;;;;;;;16.25;13.48;;;;;;;;;;5159292;27;20098;-62
2022/02/16 10:18:33;;;;;;;15.45;13.70;;;;;;;;;;5140523;27;20482;-63
2022/02/16 10:21:10;;;;;;;20.55;15.38;;;;;;;;;;5159283;27;20421;-62
2022/02/16 10:23:44;;;;;;;18.05;14.48;;;;;;;;;;5159133;27;20096;-60
2022/02/16 10:26:11;;;;;;;16.75;14.48;;;;;;;;;;5159426;27;20071;-63
2022/02/16 10:28:46;;;;;;;15.73;14.02;;;;;;;;;;5159022;27;20066;-63
2022/02/16 10:31:13;;;;;;;14.35;12.65;;;;;;;;;;5159168;27;20523;-62
2022/02/16 10:33:41;;;;;;;15.30;12.60;;;;;;;;;;5159152;27;20074;-63
2022/02/16 10:36:09;;;;;;;15.55;12.10;;;;;;;;;;5140064;27;20066;-63
2022/02/16 10:38:52;;;;;;;14.32;11.90;;;;;;;;;;5140002;27;20090;-63
2022/02/16 10:41:18;;;;;;;14.10;12.10;;;;;;;;;;5159074;27;20075;-63
2022/02/16 10:43:45;;;;;;;16.70;12.88;;;;;;;;;;5159235;27;20586;-63
2022/02/16 10:46:23;;;;;;;15.25;12.18;;;;;;;;;;5159170;27;20086;-63
2022/02/16 10:49:14;;;;;;;14.38;11.75;;;;;;;;;;5159048;27;20414;-63
2022/02/16 10:51:41;;;;;;;15.75;12.57;;;;;;;;;;5159037;27;20499;-63
2022/02/16 10:54:18;;;;;;;13.15;11.70;;;;;;;;;;5158965;27;20248;-63
2022/02/16 10:56:47;;;;;;;14.35;11.30;;;;;;;;;;5159016;27;20107;-63
2022/02/16 10:59:13;;;;;;;16.08;11.57;;;;;;;;;;5158946;27;20082;-64
2022/02/16 11:01:40;;;;;;;12.18;10.85;;;;;;;;;;5159105;27;20100;-64
2022/02/16 11:04:08;;;;;;;14.87;10.95;;;;;;;;;;5159153;27;20406;-64
2022/02/16 11:06:37;;;;;;;13.07;11.77;;;;;;;;;;5158526;27;20167;-63
2022/02/16 11:09:04;;;;;;;14.40;11.35;;;;;;;;;;5158828;27;20086;-63
2022/02/16 11:11:31;;;;;;;14.50;11.12;;;;;;;;;;5159182;27;20075;-64
2022/02/16 11:13:59;;;;;;;13.27;11.52;;;;;;;;;;5140216;27;20078;-64
2022/02/16 11:16:26;;;;;;;15.68;11.75;;;;;;;;;;5140317;27;20481;-64
2022/02/16 11:18:59;;;;;;;14.20;12.68;;;;;;;;;;5159006;27;20149;-64
2022/02/16 11:21:28;;;;;;;12.50;10.57;;;;;;;;;;5159267;27;20505;-63
2022/02/16 11:23:57;;;;;;;13.25;10.63;;;;;;;;;;5140493;27;20082;-64
2022/02/16 11:26:48;;;;;;;14.50;12.37;;;;;;;;;;5158936;27;20062;-64
2022/02/16 11:29:26;;;;;;;14.43;12.27;;;;;;;;;;5159022;27;20075;-63
2022/02/16 11:32:17;;;;;;;13.85;12.05;;;;;;;;;;5159005;27;20073;-63
2022/02/16 11:34:45;;;;;;;12.95;11.15;;;;;;;;;;5128709;27;20062;-64
2022/02/16 11:37:12;;;;;;;12.65;11.25;;;;;;;;;;5140308;27;20094;-63
2022/02/16 11:39:59;;;;;;;15.43;12.10;;;;;;;;;;5139829;27;20101;-64
2022/02/16 11:42:47;;;;;;;13.62;12.30;;;;;;;;;;5158944;27;20513;-61
2022/02/16 11:45:18;;;;;;;13.25;11.85;;;;;;;;;;5159056;27;20086;-62
2022/02/16 11:47:45;;;;;;;14.30;12.70;;;;;;;;;;5158615;27;20066;-62
2022/02/16 11:50:14;;;;;;;15.20;12.77;;;;;;;;;;5158942;27;20079;-61
2022/02/16 11:52:57;;;;;;;14.75;13.02;;;;;;;;;;5158808;27;20081;-62
2022/02/16 11:55:30;;;;;;;13.65;12.15;;;;;;;;;;5158993;27;20177;-62
2022/02/16 11:58:02;;;;;;;13.93;12.48;;;;;;;;;;5158644;27;20077;-62
2022/02/16 12:00:37;;;;;;;16.45;12.93;;;;;;;;;;5158655;27;20069;-62
2022/02/16 12:03:05;;;;;;;14.75;12.88;;;;;;;;;;5139699;27;20067;-62
2022/02/16 12:05:56;;;;;;;15.13;13.05;;;;;;;;;;5158534;27;20070;-62
2022/02/16 12:08:23;;;;;;;15.43;12.55;;;;;;;;;;5158516;27;20077;-62
2022/02/16 12:11:06;;;;;;;13.50;11.98;;;;;;;;;;5140124;27;20521;-62
2022/02/16 12:13:38;;;;;;;17.33;13.68;;;;;;;;;;5139722;27;20489;-61
2022/02/16 12:16:10;;;;;;;15.32;12.80;;;;;;;;;;5158733;27;20149;-61
2022/02/16 12:18:38;;;;;;;13.23;11.77;;;;;;;;;;5158566;27;20094;-61
2022/02/16 12:21:05;;;;;;;16.27;14.57;;;;;;;;;;5158792;27;20089;-61
2022/02/16 12:23:39;;;;;;;17.52;15.23;;;;;;;;;;5158497;27;20089;-62
2022/02/16 12:26:14;;;;;;;15.90;14.27;;;;;;;;;;5141023;27;20086;-61
2022/02/16 12:28:49;;;;;;;20.42;16.00;;;;;;;;;;5158333;27;20096;-61
2022/02/16 12:31:15;;;;;;;21.08;16.33;;;;;;;;;;5158497;27;20101;-61
2022/02/16 12:33:42;;;;;;;18.90;15.07;;;;;;;;;;5158526;27;20251;-61
2022/02/16 12:36:08;;;;;;;23.10;17.33;;;;;;;;;;5158825;27;20070;-60
2022/02/16 12:38:36;;;;;;;22.00;17.95;;;;;;;;;;5158446;27;20596;-60
2022/02/16 12:41:07;;;;;;;23.98;18.20;;;;;;;;;;5139950;27;20082;-60
2022/02/16 12:43:34;;;;;;;23.38;17.02;;;;;;;;;;5139790;27;20096;-61
2022/02/16 12:46:00;;;;;;;19.40;15.88;;;;;;;;;;5158435;27;20153;-59
2022/02/16 12:48:26;;;;;;;22.10;17.52;;;;;;;;;;5139066;27;20074;-61
2022/02/16 12:51:04;;;;;;;26.85;20.65;;;;;;;;;;5139721;27;20097;-60
2022/02/16 12:53:37;;;;;;;33.35;26.60;;;;;;;;;;5158677;27;20102;-60
2022/02/16 12:56:10;;;;;;;26.65;22.30;;;;;;;;;;5158487;27;20071;-60
2022/02/16 12:58:39;;;;;;;21.17;17.87;;;;;;;;;;5158127;27;20089;-60
2022/02/16 13:01:06;;;;;;;20.05;16.30;;;;;;;;;;5138589;27;20481;-61
2022/02/16 13:03:33;;;;;;;19.00;15.90;;;;;;;;;;5157894;27;20212;-61
2022/02/16 13:06:01;;;;;;;17.58;15.70;;;;;;;;;;5158297;27;20121;-60
2022/02/16 13:08:28;;;;;;;18.62;14.20;;;;;;;;;;5158261;27;20164;-60
2022/02/16 13:10:57;;;;;;;18.10;14.32;;;;;;;;;;5139172;27;20073;-60
2022/02/16 13:13:33;;;;;;;16.83;13.65;;;;;;;;;;5158194;27;20141;-61
2022/02/16 13:16:01;;;;;;;15.45;12.95;;;;;;;;;;5158933;27;20132;-60
2022/02/16 13:18:33;;;;;;;14.25;12.75;;;;;;;;;;5159703;27;20088;-60
2022/02/16 13:21:09;;;;;;;17.87;13.13;;;;;;;;;;5159646;27;20067;-60
2022/02/16 13:23:36;;;;;;;17.77;13.60;;;;;;;;;;5159741;27;20150;-61
2022/02/16 13:26:11;;;;;;;16.52;14.10;;;;;;;;;;5140851;27;20091;-60
2022/02/16 13:28:38;;;;;;;18.08;15.15;;;;;;;;;;5159624;27;20082;-60
2022/02/16 13:31:28;;;;;;;23.65;16.55;;;;;;;;;;5159978;27;20105;-60
2022/02/16 13:34:04;;;;;;;25.67;17.12;;;;;;;;;;5141672;27;20169;-59
2022/02/16 13:36:40;;;;;;;26.20;19.58;;;;;;;;;;5160010;27;20441;-60
2022/02/16 13:39:24;;;;;;;26.95;19.73;;;;;;;;;;5159598;27;20154;-60
2022/02/16 13:41:55;;;;;;;30.35;24.27;;;;;;;;;;5159843;27;20085;-60
2022/02/16 13:44:22;;;;;;;29.50;23.62;;;;;;;;;;5159840;27;20402;-60
2022/02/16 13:46:49;;;;;;;26.80;20.90;;;;;;;;;;5140620;27;20070;-60
2022/02/16 13:49:18;;;;;;;26.08;20.65;;;;;;;;;;5159432;27;20098;-60
2022/02/16 13:52:00;;;;;;;21.37;17.77;;;;;;;;;;5159493;27;20506;-62
2022/02/16 13:54:29;;;;;;;22.98;16.92;;;;;;;;;;5140388;27;20489;-62
2022/02/16 13:56:57;;;;;;;18.40;15.55;;;;;;;;;;5158700;27;20098;-61
2022/02/16 13:59:25;;;;;;;16.37;13.80;;;;;;;;;;5158598;27;20102;-63
2022/02/16 14:02:22;;;;;;;15.32;12.90;;;;;;;;;;5159486;27;20161;-62
2022/02/16 14:04:49;;;;;;;17.65;12.75;;;;;;;;;;5146347;27;20098;-60
2022/02/16 14:07:16;;;;;;;16.70;14.80;;;;;;;;;;5140561;27;20102;-58
2022/02/16 14:09:42;;;;;;;16.95;14.38;;;;;;;;;;5159428;27;20188;-62
2022/02/16 14:12:09;;;;;;;17.00;14.20;;;;;;;;;;5159244;27;20086;-62
2022/02/16 14:14:36;;;;;;;15.55;13.55;;;;;;;;;;5158887;27;20113;-62
2022/02/16 14:17:02;;;;;;;17.75;14.00;;;;;;;;;;5159102;27;20142;-61
2022/02/16 14:19:28;;;;;;;16.83;14.70;;;;;;;;;;5158896;27;20077;-60
2022/02/16 14:21:59;;;;;;;16.60;14.65;;;;;;;;;;5159217;27;20094;-61
2022/02/16 14:24:29;;;;;;;23.12;18.65;;;;;;;;;;5159208;27;20505;-61
2022/02/16 14:26:55;;;;;;;26.08;19.80;;;;;;;;;;5159047;27;20081;-62
2022/02/16 14:29:22;;;;;;;19.00;15.70;;;;;;;;;;5159306;27;20078;-61
2022/02/16 14:31:48;;;;;;;16.70;14.93;;;;;;;;;;5159302;27;20087;-61
2022/02/16 14:34:16;;;;;;;15.90;14.20;;;;;;;;;;5158971;27;20437;-62
2022/02/16 14:36:45;;;;;;;18.52;16.00;;;;;;;;;;5140560;27;20078;-61
2022/02/16 14:39:14;;;;;;;26.60;17.67;;;;;;;;;;5158960;27;20205;-62
2022/02/16 14:41:41;;;;;;;23.45;18.77;;;;;;;;;;5159240;27;20083;-60